Flight Track Log - Related Links

Times and Time Zones

All times are in EDT time to prevent confusion due to time zone crossing. See the BOE272 flight status page for this flight to view local times or setup timezone preferences in your user account.

Time Position Orientation Groundspeed Altitude Reporting Facility
EDT Latitude Longitude Course Direction KTS MPH feet Rate Location/Type
Mon 03:11:41 PM 47.9247 -122.2861 358° North 173 199 1,800  Level Seattle Center
Mon 03:12:33 PM 47.9675 -122.2881 358° North 186 214 3,600 2,206 Climbing Seattle Center
Mon 03:12:49 PM 47.9864 -122.3014 335° Northwest 240 276 4,300 2,164 Climbing Seattle Center
Mon 03:13:34 PM 47.9867 -122.3697 270° West 273 314 5,800 3,057 Climbing Seattle Center
Mon 03:14:35 PM 47.9464 -122.4625 237° Southwest 274 315 9,700 3,174 Climbing Seattle Center
Mon 03:15:35 PM 47.9006 -122.5644 236° Southwest 300 345 12,200 2,628 Climbing Seattle Center
Mon 03:16:36 PM 47.8550 -122.6883 241° Southwest 358 412 15,000 3,000 Climbing Seattle Center
Mon 03:17:37 PM 47.8906 -122.8556 288° West 365 420 18,300 3,049 Climbing Seattle Center
Mon 03:18:38 PM 47.9258 -122.9986 290° West 373 429 21,200 2,557 Climbing Seattle Center
Mon 03:19:39 PM 47.9603 -123.1492 289° West 385 443 23,500 2,115 Climbing Seattle Center
Mon 03:20:40 PM 47.9969 -123.3072 289° West 403 464 25,500 1,377 Climbing Seattle Center
Mon 03:21:41 PM 48.0356 -123.4703 290° West 419 482 26,300 1,918 Climbing Seattle Center
Mon 03:22:42 PM 48.0786 -123.6528 290° West 427 491 29,400 1,918 Climbing Seattle Center
Mon 03:23:43 PM 48.1167 -123.8214 289° West 432 497 30,200 1,082 Climbing Seattle Center
Mon 03:24:44 PM 48.1583 -124.0006 289° West 453 521 31,600 1,328 Climbing Seattle Center
Mon 03:25:45 PM 48.1997 -124.1836 289° West 463 533 32,900 1,328 Climbing Seattle Center
Mon 03:26:46 PM 48.2225 -124.3744 280° West 473 544 34,300 1,279 Climbing Seattle Center
Mon 03:27:47 PM 48.2369 -124.5606 277° West 479 551 35,500 1,328 Climbing Seattle Center
Mon 03:28:48 PM 48.3478 -124.6258 339° North 480 552 37,000 1,328 Climbing Seattle Center
Mon 03:29:49 PM 48.4069 -124.8192 295° West 470 541 38,200 984 Climbing Seattle Center
Mon 03:30:50 PM 48.3431 -124.9664 237° Southwest 464 534 39,000 397 Climbing Seattle Center
Mon 03:31:50 PM 48.2172 -124.9706 181° South 480 552 39,000 -50 Level Seattle Center
Mon 03:32:51 PM 48.0950 -124.8894 156° South 489 563 38,900  Descending Seattle Center
Mon 03:33:52 PM 47.9719 -124.8075 156° South 489 563 39,000 49 Climbing Seattle Center
Mon 03:34:53 PM 47.8478 -124.7267 156° South 491 565 39,000 -49 Level Seattle Center
Mon 03:35:54 PM 47.6992 -124.6306 156° South 489 563 38,900  Descending Seattle Center
Mon 03:36:55 PM 47.5753 -124.5500 156° South 489 563 39,000  Climbing Seattle Center
Mon 03:37:56 PM 47.4528 -124.4725 157° South 484 557 38,900 -49 Descending Seattle Center
Mon 03:38:57 PM 47.3308 -124.3936 156° South 480 552 38,900  Level Seattle Center
Mon 03:39:58 PM 47.2097 -124.3164 157° South 477 549 38,900 49 Level Seattle Center
Mon 03:40:59 PM 47.0875 -124.2400 157° South 480 552 39,000  Climbing Seattle Center
Mon 03:42:00 PM 46.9644 -124.1636 157° South 481 554 38,900  Descending Seattle Center
Mon 03:43:01 PM 46.8367 -124.1103 164° South 480 552 39,000 49 Climbing Seattle Center
Mon 03:44:02 PM 46.7069 -124.0675 167° South 478 550 39,000  Level Seattle Center
Mon 03:45:03 PM 46.5769 -124.0233 167° South 479 551 39,000  Level Seattle Center
Mon 03:46:04 PM 46.4461 -123.9794 167° South 483 556 39,000 -49 Level Seattle Center
Mon 03:47:05 PM 46.3017 -123.9294 167° South 480 552 38,900  Descending Seattle Center
Mon 03:48:06 PM 46.1719 -123.8881 168° South 479 551 39,000  Climbing Seattle Center
Mon 03:49:07 PM 46.0419 -123.8944 182° South 470 541 38,900 -49 Descending Seattle Center
Mon 03:50:08 PM 45.9125 -123.9108 185° South 470 541 38,900 49 Level Seattle Center
Mon 03:51:09 PM 45.7822 -123.9269 185° South 472 543 39,000 49 Climbing Seattle Center
Mon 03:52:10 PM 45.6522 -123.9406 184° South 471 542 39,000  Level Seattle Center
Mon 03:53:11 PM 45.5231 -123.9550 184° South 469 540 39,000 -49 Level Seattle Center
Mon 03:54:12 PM 45.3925 -123.9689 184° South 472 543 38,900  Descending Seattle Center
Mon 03:55:13 PM 45.2375 -123.9881 185° South 470 541 39,000 49 Climbing Seattle Center
Mon 03:56:14 PM 45.1092 -124.0028 185° South 471 542 39,000 -49 Level Seattle Center
Mon 03:57:15 PM 44.9794 -124.0186 185° South 475 547 38,900 -49 Descending Seattle Center
Mon 03:58:16 PM 44.8542 -124.0331 185° South 462 532 38,900 49 Level Seattle Center
Mon 03:59:17 PM 44.7261 -124.0469 184° South 469 540 39,000  Climbing Seattle Center
Mon 04:00:17 PM 44.6003 -124.0261 173° South 485 558 38,900  Descending Seattle Center
Mon 04:01:18 PM 44.5647 -123.8522 106° East 514 592 39,000  Climbing Seattle Center
Mon 04:02:19 PM 44.6717 -123.7364 38° Northeast 517 595 38,900  Descending Seattle Center
Mon 04:03:20 PM 44.8142 -123.7264 North 511 588 39,000 49 Climbing Seattle Center
Mon 04:04:21 PM 44.9592 -123.7403 356° North 508 585 39,000 -49 Level Seattle Center
Mon 04:05:22 PM 45.1042 -123.7589 355° North 512 589 38,900  Descending Seattle Center
Mon 04:06:23 PM 45.2458 -123.7742 356° North 510 587 39,000 49 Climbing Seattle Center
Mon 04:07:24 PM 45.3892 -123.7911 355° North 513 590 39,000 -98 Level Seattle Center
Mon 04:08:25 PM 45.5597 -123.8117 355° North 514 592 38,800  Descending Seattle Center
Mon 04:09:26 PM 45.6983 -123.8275 355° North 501 577 39,000 98 Climbing Seattle Center
Mon 04:10:27 PM 45.8344 -123.8439 355° North 492 566 39,000 -49 Level Seattle Center
Mon 04:11:28 PM 45.9686 -123.8592 355° North 487 560 38,900  Descending Seattle Center
Mon 04:12:29 PM 46.1025 -123.8756 355° North 485 558 39,000 49 Climbing Seattle Center
Mon 04:13:30 PM 46.2350 -123.9031 352° North 483 556 39,000  Level Seattle Center
Mon 04:14:31 PM 46.3653 -123.9528 345° North 484 557 39,000  Level Seattle Center
Mon 04:15:32 PM 46.5081 -123.9994 347° North 485 558 39,000  Level Seattle Center
Mon 04:16:33 PM 46.6378 -124.0439 347° North 482 555 39,000  Level Seattle Center
Mon 04:17:34 PM 46.7658 -124.0872 347° North 474 545 39,000  Level Seattle Center
Mon 04:18:34 PM 46.8908 -124.1311 347° North 466 536 39,000 -50 Level Seattle Center
Mon 04:19:35 PM 47.0153 -124.1744 347° North 461 531 38,900  Descending Seattle Center
Mon 04:20:36 PM 47.1406 -124.2181 347° North 463 533 39,000 49 Climbing Seattle Center
Mon 04:21:37 PM 47.2653 -124.2600 347° North 462 532 39,000  Level Seattle Center
Mon 04:22:38 PM 47.3903 -124.2614 360° North 465 535 39,000  Level Seattle Center
Mon 04:23:39 PM 47.4389 -124.0933 67° East 470 541 39,000  Level Seattle Center
Mon 04:24:40 PM 47.4467 -123.8744 87° East 476 548 39,000  Level Seattle Center
Mon 04:25:41 PM 47.4531 -123.6786 87° East 482 555 39,000  Level Seattle Center
Mon 04:26:42 PM 47.4586 -123.4842 88° East 482 555 39,000 -295 Level Seattle Center
Mon 04:27:43 PM 47.4950 -123.2922 74° East 489 563 38,400 -787 Descending Seattle Center
Mon 04:28:44 PM 47.5469 -123.0983 68° East 517 595 37,400 -1,918 Descending Seattle Center
Mon 04:29:45 PM 47.6622 -123.0092 28° Northeast 475 547 34,500 -3,885 Descending Seattle Center
Mon 04:30:46 PM 47.7814 -122.9742 11° North 444 511 29,500 -4,033 Descending Seattle Center
Mon 04:31:47 PM 47.9114 -122.9725 360° North 391 450 26,300 -3,590 Descending Seattle Center
Mon 04:32:48 PM 48.0044 -122.9750 359° North 345 397 22,200 -3,787 Descending Seattle Center
Mon 04:33:49 PM 48.0989 -122.9978 351° North 353 406 18,600 -3,246 Descending Seattle Center
Mon 04:34:50 PM 48.1389 -123.1031 300° West 299 344 15,600 -1,770 Descending Seattle Center
Mon 04:35:51 PM 48.1517 -123.2181 279° West 283 326 15,000 -295 Descending Seattle Center
Mon 04:36:52 PM 48.1642 -123.3278 280° West 246 283 15,000 -49 Level Seattle Center
Mon 04:37:53 PM 48.1725 -123.4006 280° West 189 217 14,900  Descending Seattle Center
Mon 04:38:54 PM 48.1792 -123.4614 279° West 153 176 15,000 49 Climbing Seattle Center
Mon 04:39:55 PM 48.1858 -123.5233 279° West 151 174 15,000  Level Seattle Center
Mon 04:40:56 PM 48.1925 -123.5897 279° West 157 181 15,000  Level Seattle Center
Mon 04:41:57 PM 48.2008 -123.6667 279° West 181 208 15,000 -49 Level Seattle Center
Mon 04:42:58 PM 48.2061 -123.7269 278° West 157 181 14,900  Descending Seattle Center
Mon 04:43:59 PM 48.2133 -123.8019 278° West 176 203 15,000 49 Climbing Seattle Center
Mon 04:45:00 PM 48.2189 -123.9100 274° West 235 270 15,000  Level Seattle Center
Mon 04:46:01 PM 48.2247 -124.0133 275° West 252 290 15,000  Level Seattle Center
Mon 04:47:02 PM 48.2311 -124.1156 275° West 249 287 15,000  Level Seattle Center
Mon 04:48:03 PM 48.2392 -124.2183 277° West 248 285 15,000  Level Seattle Center
Mon 04:49:04 PM 48.2528 -124.3219 281° West 250 288 15,000  Level Seattle Center
Mon 04:50:05 PM 48.2692 -124.4467 281° West 252 290 15,000  Level Seattle Center
Mon 04:51:06 PM 48.2833 -124.5506 282° West 253 291 15,000  Level Seattle Center
Mon 04:52:07 PM 48.2972 -124.6561 281° West 253 291 15,000  Level Seattle Center
Mon 04:53:08 PM 48.2919 -124.7650 266° West 257 296 15,000 -49 Level Seattle Center
Mon 04:54:09 PM 48.2942 -124.8722 272° West 266 306 14,900 -49 Descending Seattle Center
Mon 04:55:10 PM 48.3342 -124.8186 42° Northeast 275 316 14,900 49 Level Seattle Center
Mon 04:56:11 PM 48.3175 -124.7128 103° East 287 330 15,000 38 Climbing Seattle Center
Mon 04:57:49 PM 48.2853 -124.5178 104° East 273 314 15,000  Level Seattle Center
Mon 04:58:50 PM 48.2653 -124.3983 104° East 296 341 15,000  Level Seattle Center
Mon 04:59:51 PM 48.2461 -124.2800 104° East 295 339 15,000  Level Seattle Center
Mon 05:00:52 PM 48.2314 -124.1514 100° East 304 350 15,000 -49 Level Seattle Center
Mon 05:01:53 PM 48.2064 -123.9781 102° East 344 396 14,900  Descending Seattle Center
Mon 05:02:54 PM 48.1814 -123.8161 103° East 392 451 15,000 -495 Climbing Seattle Center
Mon 05:03:42 PM 48.1617 -123.6878 103° East 398 458 14,000 -1,918 Descending Seattle Center
Mon 05:04:56 PM 48.1344 -123.4981 102° East 392 451 11,100 -1,778 Descending Seattle Center
Mon 05:05:57 PM 48.1122 -123.3544 103° East 363 418 10,000 -689 Descending Seattle Center
Mon 05:06:58 PM 48.0922 -123.2267 103° East 313 360 9,700 -639 Descending Seattle Center
Mon 05:07:59 PM 48.0756 -123.1175 103° East 289 333 8,700 -1,082 Descending Seattle Center
Mon 05:09:00 PM 48.0586 -123.0075 103° East 277 319 7,500 -1,443 Descending Seattle Center
Mon 05:09:18 PM 48.0500 -122.9611 106° East 267 307 6,800 -1,375 Descending Seattle Center
Mon 05:09:48 PM 48.0417 -122.9092 103° East 265 305 6,400 -1,121 Descending Seattle Center
Mon 05:10:49 PM 48.0392 -122.8083 92° East 258 297 5,100 -689 Descending Seattle Center
Mon 05:11:50 PM 48.0619 -122.7031 72° East 245 282 5,000 -49 Descending Seattle Center
Mon 05:12:51 PM 48.0844 -122.6047 71° East 243 280 5,000 -148 Level Seattle Center
Mon 05:13:52 PM 48.0953 -122.5058 81° East 226 260 4,700 -533 Descending Seattle Center
Mon 05:15:06 PM 48.0869 -122.4008 97° East 220 253 3,800 -843 Descending Seattle Center
Mon 05:15:53 PM 48.0828 -122.3403 96° East 179 206 3,000 -444 Descending Seattle Center
Mon 05:16:54 PM 48.0528 -122.2908 132° Southeast 183 211 3,000 -344 Level Seattle Center
Mon 05:17:55 PM 48.0053 -122.2875 177° South 150 173 2,300 -738 Descending Seattle Center
Mon 05:18:56 PM 47.9650 -122.2867 179° South 142 163 1,500 -662 Descending Seattle Center
Mon 05:20:11 PM 47.9194 -122.2853 179° South 145 167 800 -560 Descending Seattle Center
Mon 05:22:00 PM 47.9070 -122.2816 142° Southeast  Level Estimated

Login

Don't have an account? Register now (free) for customized features, flight alerts, and more!